Time;durP1;ratioP1;P1;durP2;ratioP2;P2;SDS_P1;SDS_P2;PMS_P1;PMS_P2;Temp;Humidity;BMP_temperature;BMP_pressure;BME280_temperature;BME280_humidity;BME280_pressure;Samples;Min_cycle;Max_cycle;Signal;HPM_P1;HPM_P2
2022/04/20 21:13:49;;;;;;;;;3.50;3.50;;;;;;;;1572261;27;83546;-68
2022/04/20 21:14:34;;;;;;;;;3.75;3.75;;;;;;;;1558574;28;83623;-68
2022/04/20 21:15:19;;;;;;;;;4.67;4.67;;;;;;;;1559014;28;83757;-68
2022/04/20 21:16:07;;;;;;;;;3.00;3.00;;;;;;;;1549211;28;84423;-68
2022/04/20 21:16:52;;;;;;;;;4.00;4.00;;;;;;;;1552637;28;83299;-68
2022/04/20 21:17:38;;;;;;;;;5.00;5.00;;;;;;;;1550654;28;83355;-68
2022/04/20 21:18:24;;;;;;;;;5.50;5.50;;;;;;;;1551522;28;83546;-68
2022/04/20 21:19:09;;;;;;;;;5.33;5.33;;;;;;;;1552489;28;83396;-67
2022/04/20 21:19:54;;;;;;;;;5.00;5.00;;;;;;;;1553187;28;83832;-67
2022/04/20 21:20:40;;;;;;;;;7.00;7.00;;;;;;;;1551025;28;83700;-68
2022/04/20 21:21:26;;;;;;;;;7.00;7.00;;;;;;;;1553205;28;83623;-68
2022/04/20 21:22:12;;;;;;;;;6.50;6.50;;;;;;;;1553175;28;83516;-68
2022/04/20 21:22:58;;;;;;;;;6.67;6.67;;;;;;;;1553082;28;83397;-68
2022/04/20 21:23:44;;;;;;;;;6.75;6.75;;;;;;;;1553264;28;83451;-68
2022/04/20 21:24:30;;;;;;;;;7.50;7.50;;;;;;;;1559263;27;83223;-68
2022/04/20 21:25:15;;;;;;;;;6.50;6.50;;;;;;;;1559361;28;83299;-68
2022/04/20 21:26:01;;;;;;;;;6.00;6.00;;;;;;;;1559700;28;83631;-68
2022/04/20 21:26:46;;;;;;;;;6.00;6.00;;;;;;;;1552873;28;83362;-68
2022/04/20 21:27:32;;;;;;;;;8.67;8.67;;;;;;;;1553193;28;83690;-68
2022/04/20 21:28:17;;;;;;;;;5.00;5.00;;;;;;;;1553163;28;83440;-67
2022/04/20 21:29:03;;;;;;;;;6.33;6.33;;;;;;;;1553417;28;83446;-67
2022/04/20 21:29:48;;;;;;;;;6.33;6.33;;;;;;;;1553361;28;83243;-67
2022/04/20 21:30:33;;;;;;;;;5.00;5.00;;;;;;;;1553154;28;84299;-67
2022/04/20 21:31:19;;;;;;;;;3.00;3.00;;;;;;;;1552454;28;83510;-68
2022/04/20 21:32:05;;;;;;;;;7.50;7.50;;;;;;;;1546956;28;83332;-69
2022/04/20 21:32:52;;;;;;;;;7.00;7.00;;;;;;;;1547110;28;83588;-67
2022/04/20 21:33:37;;;;;;;;;5.25;5.25;;;;;;;;1546909;28;83120;-67
2022/04/20 21:34:22;;;;;;;;;7.33;7.33;;;;;;;;1546959;28;83369;-67
2022/04/20 21:35:08;;;;;;;;;6.33;6.33;;;;;;;;1549490;28;83168;-67
2022/04/20 21:35:53;;;;;;;;;7.67;6.00;;;;;;;;1547116;28;83028;-67
2022/04/20 21:36:39;;;;;;;;;8.25;8.25;;;;;;;;1546963;28;83875;-67
2022/04/20 21:37:24;;;;;;;;;6.67;6.67;;;;;;;;1546639;28;83398;-67
2022/04/20 21:38:09;;;;;;;;;8.33;8.33;;;;;;;;1546646;28;83813;-67
2022/04/20 21:38:55;;;;;;;;;8.67;8.67;;;;;;;;1551916;28;83933;-67
2022/04/20 21:39:40;;;;;;;;;5.33;5.33;;;;;;;;1553148;28;83846;-67
2022/04/20 21:41:29;;;;;;;;;8.00;8.00;;;;;;;;1551214;28;83749;-67
2022/04/20 21:42:15;;;;;;;;;6.33;6.33;;;;;;;;1553093;28;83823;-67
2022/04/20 21:43:00;;;;;;;;;7.33;7.33;;;;;;;;1553244;28;84544;-67
2022/04/20 21:43:46;;;;;;;;;8.00;8.00;;;;;;;;1553145;28;84227;-67
2022/04/20 21:44:31;;;;;;;;;6.00;6.00;;;;;;;;1553090;28;83897;-67
2022/04/20 21:45:16;;;;;;;;;7.33;7.33;;;;;;;;1552953;28;83866;-67
2022/04/20 21:46:02;;;;;;;;;8.00;8.00;;;;;;;;1552927;28;83237;-67
2022/04/20 21:46:48;;;;;;;;;7.75;7.75;;;;;;;;1552639;28;84094;-67
2022/04/20 21:47:33;;;;;;;;;7.67;7.67;;;;;;;;1552866;28;83631;-68
2022/04/20 21:48:19;;;;;;;;;9.00;8.33;;;;;;;;1552685;28;83860;-68
2022/04/20 21:49:04;;;;;;;;;8.33;8.33;;;;;;;;1553253;28;83041;-68
2022/04/20 21:49:49;;;;;;;;;7.33;7.33;;;;;;;;1552831;28;83924;-68
2022/04/20 21:50:35;;;;;;;;;5.00;5.00;;;;;;;;1553159;28;83803;-68
2022/04/20 21:51:20;;;;;;;;;6.00;6.00;;;;;;;;1553051;28;83781;-68
2022/04/20 21:52:06;;;;;;;;;6.00;6.00;;;;;;;;1553315;28;83832;-68
2022/04/20 21:52:51;;;;;;;;;8.33;8.33;;;;;;;;1553211;28;83241;-68
2022/04/20 21:53:37;;;;;;;;;8.33;8.33;;;;;;;;1552949;28;83919;-68
2022/04/20 21:54:22;;;;;;;;;6.33;6.33;;;;;;;;1553039;28;83704;-68
2022/04/20 21:55:09;;;;;;;;;6.00;6.00;;;;;;;;1553132;28;83085;-68
2022/04/20 21:55:54;;;;;;;;;6.00;6.00;;;;;;;;1552464;28;83995;-68
2022/04/20 21:56:40;;;;;;;;;9.00;9.00;;;;;;;;1546918;28;83259;-68
2022/04/20 21:57:25;;;;;;;;;7.00;7.00;;;;;;;;1549007;28;83234;-68
2022/04/20 21:58:10;;;;;;;;;8.67;8.67;;;;;;;;1546706;28;83206;-68
2022/04/20 21:58:56;;;;;;;;;8.33;8.33;;;;;;;;1546838;28;83368;-68
2022/04/20 21:59:41;;;;;;;;;7.33;7.33;;;;;;;;1546652;28;83522;-68
2022/04/20 22:00:36;;;;;;;;;4.33;4.33;;;;;;;;1546912;28;83460;-68
2022/04/20 22:01:22;;;;;;;;;7.75;7.75;;;;;;;;1549915;28;83223;-68
2022/04/20 22:08:54;;;;;;;;;8.00;8.00;;;;;;;;1546822;28;83401;-68
2022/04/20 22:09:40;;;;;;;;;9.75;9.75;;;;;;;;1550090;28;83449;-68
2022/04/20 22:10:26;;;;;;;;;8.00;8.00;;;;;;;;1552842;28;83327;-68
2022/04/20 22:12:15;;;;;;;;;9.50;9.50;;;;;;;;1552873;28;83389;-68
2022/04/20 22:13:00;;;;;;;;;8.00;8.00;;;;;;;;1553109;28;83043;-68
2022/04/20 22:13:46;;;;;;;;;7.67;7.67;;;;;;;;1552581;28;83729;-68
2022/04/20 22:14:33;;;;;;;;;8.67;8.67;;;;;;;;1552456;28;83064;-68
2022/04/20 22:15:19;;;;;;;;;7.00;7.00;;;;;;;;1552944;28;83328;-68
2022/04/20 22:16:06;;;;;;;;;5.00;5.00;;;;;;;;1553095;28;83352;-68
2022/04/20 22:16:51;;;;;;;;;5.50;5.50;;;;;;;;1552396;28;83414;-68
2022/04/20 22:17:37;;;;;;;;;7.33;7.33;;;;;;;;1552465;28;83386;-68
2022/04/20 22:18:22;;;;;;;;;6.00;6.00;;;;;;;;1552402;28;83320;-68
2022/04/20 22:19:09;;;;;;;;;7.50;7.50;;;;;;;;1552356;28;83635;-68
2022/04/20 22:19:54;;;;;;;;;6.50;6.50;;;;;;;;1552044;28;82978;-68
2022/04/20 22:20:42;;;;;;;;;6.00;6.00;;;;;;;;1553000;28;83442;-68
2022/04/20 22:21:27;;;;;;;;;8.00;8.00;;;;;;;;1555800;28;83179;-68
2022/04/20 22:22:12;;;;;;;;;7.33;7.33;;;;;;;;1553091;28;84314;-68
2022/04/20 22:22:58;;;;;;;;;9.33;9.33;;;;;;;;1552865;28;83201;-68
2022/04/20 22:23:43;;;;;;;;;5.67;5.67;;;;;;;;1552605;28;83717;-68
2022/04/20 22:24:28;;;;;;;;;7.33;7.33;;;;;;;;1552501;28;83769;-68
2022/04/20 22:25:14;;;;;;;;;3.00;3.00;;;;;;;;1548683;28;83530;-68
2022/04/20 22:25:59;;;;;;;;;8.00;8.00;;;;;;;;1548918;28;83423;-68
2022/04/20 22:26:45;;;;;;;;;7.67;7.67;;;;;;;;1548835;28;83513;-68
2022/04/20 22:27:30;;;;;;;;;5.25;5.25;;;;;;;;1547225;28;83568;-68
2022/04/20 22:28:16;;;;;;;;;5.33;5.33;;;;;;;;1548903;28;83483;-68
2022/04/20 22:29:01;;;;;;;;;9.67;9.67;;;;;;;;1548881;28;83226;-68
2022/04/20 22:29:46;;;;;;;;;7.33;7.33;;;;;;;;1548232;28;83816;-68
2022/04/20 22:30:31;;;;;;;;;6.00;6.00;;;;;;;;1548784;28;83399;-68
2022/04/20 22:31:16;;;;;;;;;9.33;9.33;;;;;;;;1548771;28;83297;-68
2022/04/20 22:32:02;;;;;;;;;6.67;6.67;;;;;;;;1548927;28;83637;-68
2022/04/20 22:32:48;;;;;;;;;10.00;10.00;;;;;;;;1548587;28;83480;-68
2022/04/20 22:33:33;;;;;;;;;6.67;6.67;;;;;;;;1548097;28;83434;-68
2022/04/20 22:34:18;;;;;;;;;9.00;9.00;;;;;;;;1548599;28;83351;-68
2022/04/20 22:35:03;;;;;;;;;8.67;8.67;;;;;;;;1547954;28;83492;-68
2022/04/20 22:35:49;;;;;;;;;8.33;8.33;;;;;;;;1548007;28;83563;-68
2022/04/20 22:36:34;;;;;;;;;7.33;7.33;;;;;;;;1548325;28;83613;-68
2022/04/20 22:37:19;;;;;;;;;7.33;7.33;;;;;;;;1548722;28;83298;-68
2022/04/20 22:38:05;;;;;;;;;8.33;8.33;;;;;;;;1548725;28;83424;-68
2022/04/20 22:38:50;;;;;;;;;9.00;9.00;;;;;;;;1548122;28;83413;-68
2022/04/20 22:39:36;;;;;;;;;9.00;9.00;;;;;;;;1547949;28;83565;-68
2022/04/20 22:40:22;;;;;;;;;7.25;7.25;;;;;;;;1548571;28;83460;-68
2022/04/20 22:41:07;;;;;;;;;6.00;6.00;;;;;;;;1548845;28;83191;-68
2022/04/20 22:41:53;;;;;;;;;9.00;9.00;;;;;;;;1548537;28;83689;-68
2022/04/20 22:42:38;;;;;;;;;8.75;8.75;;;;;;;;1551327;28;83431;-68
2022/04/20 22:43:24;;;;;;;;;5.67;5.67;;;;;;;;1548480;28;83864;-68
2022/04/20 22:44:09;;;;;;;;;8.00;8.00;;;;;;;;1547997;28;83715;-68
2022/04/20 22:44:54;;;;;;;;;3.33;3.33;;;;;;;;1548499;28;83908;-68
2022/04/20 22:45:40;;;;;;;;;7.67;7.67;;;;;;;;1548451;28;83179;-68
2022/04/20 22:46:25;;;;;;;;;8.67;8.67;;;;;;;;1548478;28;83790;-66
2022/04/20 22:47:11;;;;;;;;;5.33;5.33;;;;;;;;1548737;28;83836;-67
2022/04/20 22:47:56;;;;;;;;;5.67;5.67;;;;;;;;1548265;28;84007;-67
2022/04/20 22:48:42;;;;;;;;;9.00;9.00;;;;;;;;1548662;28;83948;-67
2022/04/20 22:49:28;;;;;;;;;6.67;6.67;;;;;;;;1548098;28;83929;-67
2022/04/20 22:50:13;;;;;;;;;7.50;7.50;;;;;;;;1548203;28;84048;-68
2022/04/20 22:50:58;;;;;;;;;7.00;7.00;;;;;;;;1548560;28;83980;-68
2022/04/20 22:51:44;;;;;;;;;6.67;6.67;;;;;;;;1548752;28;83902;-68
2022/04/20 22:52:30;;;;;;;;;6.75;6.75;;;;;;;;1554627;28;84094;-68
2022/04/20 22:53:15;;;;;;;;;9.33;9.33;;;;;;;;1549178;28;83412;-68
2022/04/20 22:54:02;;;;;;;;;8.33;8.33;;;;;;;;1545883;28;83850;-68
2022/04/20 22:54:47;;;;;;;;;9.50;9.50;;;;;;;;1542422;28;83998;-68
2022/04/20 22:55:33;;;;;;;;;9.00;9.00;;;;;;;;1542210;28;84034;-68
2022/04/20 22:56:18;;;;;;;;;9.33;9.33;;;;;;;;1542580;28;83923;-68
2022/04/20 22:57:04;;;;;;;;;8.67;8.67;;;;;;;;1542049;28;84099;-68
2022/04/20 22:57:49;;;;;;;;;8.33;8.33;;;;;;;;1542371;28;84019;-68
2022/04/20 22:58:34;;;;;;;;;8.33;8.33;;;;;;;;1542167;28;83083;-68
2022/04/20 22:59:19;;;;;;;;;10.67;10.67;;;;;;;;1546662;28;83833;-68
2022/04/20 23:00:05;;;;;;;;;10.00;10.00;;;;;;;;1548537;28;83969;-68
2022/04/20 23:00:50;;;;;;;;;8.33;8.33;;;;;;;;1548335;28;83270;-68
2022/04/20 23:01:35;;;;;;;;;9.33;9.33;;;;;;;;1548436;28;83893;-68
2022/04/20 23:02:21;;;;;;;;;5.00;5.00;;;;;;;;1548157;28;83754;-68
2022/04/20 23:03:06;;;;;;;;;8.67;8.67;;;;;;;;1548560;28;83260;-68
2022/04/20 23:03:51;;;;;;;;;8.00;8.00;;;;;;;;1548552;28;84031;-68
2022/04/20 23:04:37;;;;;;;;;8.67;8.67;;;;;;;;1551150;28;83905;-68
2022/04/20 23:05:22;;;;;;;;;9.00;9.00;;;;;;;;1547933;28;83643;-68
2022/04/20 23:06:07;;;;;;;;;8.00;8.00;;;;;;;;1547013;28;83422;-68
2022/04/20 23:06:53;;;;;;;;;8.00;8.00;;;;;;;;1541940;28;83414;-68
2022/04/20 23:07:38;;;;;;;;;10.33;8.67;;;;;;;;1542170;28;83479;-68
2022/04/20 23:08:24;;;;;;;;;10.67;10.67;;;;;;;;1542313;28;83305;-68
2022/04/20 23:09:09;;;;;;;;;9.67;9.67;;;;;;;;1547429;28;83534;-68
2022/04/20 23:09:54;;;;;;;;;10.67;10.67;;;;;;;;1548366;28;83434;-68
2022/04/20 23:10:39;;;;;;;;;8.67;8.67;;;;;;;;1548345;28;83277;-68
2022/04/20 23:11:25;;;;;;;;;9.00;9.00;;;;;;;;1548541;28;83187;-68
2022/04/20 23:12:10;;;;;;;;;8.33;8.33;;;;;;;;1548612;28;83342;-68
2022/04/20 23:12:55;;;;;;;;;7.33;7.33;;;;;;;;1548300;28;83454;-68
2022/04/20 23:13:40;;;;;;;;;6.33;6.33;;;;;;;;1547032;28;83102;-68
2022/04/20 23:14:26;;;;;;;;;12.67;12.67;;;;;;;;1546797;28;84606;-68
2022/04/20 23:15:11;;;;;;;;;8.33;8.33;;;;;;;;1548516;28;83457;-68
2022/04/20 23:15:56;;;;;;;;;10.33;10.33;;;;;;;;1548405;28;83418;-68
2022/04/20 23:16:42;;;;;;;;;8.00;8.00;;;;;;;;1548120;28;83707;-68
2022/04/20 23:17:27;;;;;;;;;8.00;8.00;;;;;;;;1548277;28;83120;-67
2022/04/20 23:18:12;;;;;;;;;8.33;8.33;;;;;;;;1548073;28;84895;-67
2022/04/20 23:18:57;;;;;;;;;9.33;9.33;;;;;;;;1547440;28;83559;-67
2022/04/20 23:19:43;;;;;;;;;8.67;8.67;;;;;;;;1541621;28;83560;-68
2022/04/20 23:20:28;;;;;;;;;10.00;10.00;;;;;;;;1541734;28;83748;-68
2022/04/20 23:21:13;;;;;;;;;8.67;8.67;;;;;;;;1542042;28;83266;-68
2022/04/20 23:21:58;;;;;;;;;9.33;9.33;;;;;;;;1542206;28;83461;-67
2022/04/20 23:22:43;;;;;;;;;8.67;8.67;;;;;;;;1542204;28;83324;-67
2022/04/20 23:23:32;;;;;;;;;8.00;8.00;;;;;;;;1544326;28;83480;-67
2022/04/20 23:24:17;;;;;;;;;8.50;8.50;;;;;;;;1548442;28;83252;-67
2022/04/20 23:28:32;;;;;;;;;10.00;10.00;;;;;;;;1548350;28;83108;-68
2022/04/20 23:29:18;;;;;;;;;10.25;10.25;;;;;;;;1548382;28;83191;-68
2022/04/20 23:30:03;;;;;;;;;10.33;10.33;;;;;;;;1548334;28;83360;-68
2022/04/20 23:30:49;;;;;;;;;7.25;7.25;;;;;;;;1548221;28;83499;-68
2022/04/20 23:31:34;;;;;;;;;7.33;7.33;;;;;;;;1547980;28;83755;-68
2022/04/20 23:32:19;;;;;;;;;9.00;9.00;;;;;;;;1548317;28;83401;-70
2022/04/20 23:33:05;;;;;;;;;10.33;10.33;;;;;;;;1548063;28;83625;-68
2022/04/20 23:33:50;;;;;;;;;9.33;9.33;;;;;;;;1548010;28;83506;-68
2022/04/20 23:34:35;;;;;;;;;10.00;10.00;;;;;;;;1548323;28;83604;-68
2022/04/20 23:35:20;;;;;;;;;9.67;9.67;;;;;;;;1548156;28;83455;-68
2022/04/20 23:36:06;;;;;;;;;8.67;8.67;;;;;;;;1547912;28;83507;-68
2022/04/20 23:36:51;;;;;;;;;8.67;8.67;;;;;;;;1547360;28;83403;-68
2022/04/20 23:37:36;;;;;;;;;9.00;9.00;;;;;;;;1548079;28;83411;-68
2022/04/20 23:38:22;;;;;;;;;7.67;7.67;;;;;;;;1548347;28;83554;-68
2022/04/20 23:39:07;;;;;;;;;8.75;8.75;;;;;;;;1547631;28;83343;-68
2022/04/20 23:39:53;;;;;;;;;9.67;9.67;;;;;;;;1548273;28;83630;-68
2022/04/20 23:40:38;;;;;;;;;8.67;7.67;;;;;;;;1548280;28;83363;-68
2022/04/20 23:41:23;;;;;;;;;10.00;10.00;;;;;;;;1548422;28;83344;-67
2022/04/20 23:42:08;;;;;;;;;9.33;9.33;;;;;;;;1548200;28;83469;-67
2022/04/20 23:42:53;;;;;;;;;8.33;8.33;;;;;;;;1548321;28;83351;-67
2022/04/20 23:43:39;;;;;;;;;10.00;10.00;;;;;;;;1548087;28;83235;-67
2022/04/20 23:44:24;;;;;;;;;8.33;8.33;;;;;;;;1548261;28;83256;-67
2022/04/20 23:45:09;;;;;;;;;9.67;9.67;;;;;;;;1548245;28;83464;-68
2022/04/20 23:45:57;;;;;;;;;8.33;8.33;;;;;;;;1547960;28;83449;-68
2022/04/20 23:46:42;;;;;;;;;9.50;9.50;;;;;;;;1548215;28;83613;-68
2022/04/20 23:47:29;;;;;;;;;10.00;10.00;;;;;;;;1542709;28;83450;-68
2022/04/20 23:48:14;;;;;;;;;10.50;10.50;;;;;;;;1545980;28;83476;-68
2022/04/20 23:48:59;;;;;;;;;11.00;11.00;;;;;;;;1550809;28;83666;-68
2022/04/20 23:50:48;;;;;;;;;9.50;9.50;;;;;;;;1542684;28;83629;-68
2022/04/20 23:51:33;;;;;;;;;10.00;10.00;;;;;;;;1542105;28;83147;-68
2022/04/20 23:52:19;;;;;;;;;11.33;11.33;;;;;;;;1542127;28;83928;-68
2022/04/20 23:53:07;;;;;;;;;8.00;8.00;;;;;;;;1541989;28;83932;-68
2022/04/20 23:53:52;;;;;;;;;9.00;7.75;;;;;;;;1542024;28;84156;-68
2022/04/20 23:54:37;;;;;;;;;8.67;8.67;;;;;;;;1542120;28;83159;-68
2022/04/20 23:55:23;;;;;;;;;10.00;8.00;;;;;;;;1542107;28;83906;-68
2022/04/20 23:56:08;;;;;;;;;10.00;10.00;;;;;;;;1542168;28;83950;-68
2022/04/20 23:56:53;;;;;;;;;12.00;12.00;;;;;;;;1541834;28;83277;-68
2022/04/20 23:57:38;;;;;;;;;8.00;8.00;;;;;;;;1542045;28;83742;-68
2022/04/20 23:58:23;;;;;;;;;3.33;3.33;;;;;;;;1541867;28;83819;-68
2022/04/20 23:59:09;;;;;;;;;10.00;10.00;;;;;;;;1542538;28;83058;-67
2022/04/20 23:59:56;;;;;;;;;8.67;8.67;;;;;;;;1541831;28;84181;-67
